createdAt,value
2022-10-31T00:00:14.962Z,14.83
2022-10-31T00:05:18.280Z,14.63
2022-10-31T00:10:20.789Z,14.69
2022-10-31T00:15:23.410Z,14.64
2022-10-31T00:20:26.106Z,14.80
2022-10-31T00:25:30.226Z,14.89
2022-10-31T00:30:33.229Z,14.64
2022-10-31T00:35:35.610Z,14.49
2022-10-31T00:40:38.524Z,14.36
2022-10-31T00:45:41.926Z,14.37
2022-10-31T00:50:44.461Z,14.40
2022-10-31T00:55:47.175Z,14.25
2022-10-31T01:00:56.408Z,14.44
2022-10-31T01:06:06.954Z,14.40
2022-10-31T01:11:12.406Z,14.35
2022-10-31T01:16:19.623Z,14.18
2022-10-31T01:21:24.776Z,14.07
2022-10-31T01:26:31.777Z,14.13
2022-10-31T01:31:37.885Z,14.36
2022-10-31T01:36:40.574Z,14.42
2022-10-31T01:41:53.792Z,14.40
2022-10-31T01:47:27.818Z,14.27
2022-10-31T01:52:39.740Z,14.30
2022-10-31T01:57:46.761Z,14.20
2022-10-31T02:02:52.806Z,14.05
2022-10-31T02:08:15.046Z,14.02
2022-10-31T02:13:18.400Z,13.98
2022-10-31T02:18:26.209Z,14.04
2022-10-31T02:23:50.497Z,14.09
2022-10-31T02:29:30.663Z,13.97
2022-10-31T02:34:43.961Z,13.75
2022-10-31T02:40:04.737Z,13.77
2022-10-31T02:45:32.362Z,13.59
2022-10-31T02:50:40.382Z,13.57
2022-10-31T02:55:59.275Z,13.56
2022-10-31T03:01:23.333Z,13.49
2022-10-31T03:06:29.797Z,13.61
2022-10-31T03:11:49.891Z,14.03
2022-10-31T03:16:55.864Z,13.74
2022-10-31T03:22:10.183Z,13.72
2022-10-31T03:27:17.089Z,13.63
2022-10-31T03:32:33.332Z,13.93
2022-10-31T03:37:39.823Z,14.39
2022-10-31T03:42:55.761Z,14.19
2022-10-31T03:48:00.670Z,14.83
2022-10-31T03:53:07.364Z,14.16
2022-10-31T03:58:22.181Z,13.47
2022-10-31T04:03:28.701Z,13.35
2022-10-31T04:08:40.389Z,13.59
2022-10-31T04:13:47.035Z,13.64
2022-10-31T04:18:57.320Z,13.64
2022-10-31T04:24:00.084Z,13.50
2022-10-31T04:29:05.830Z,13.28
2022-10-31T04:34:08.525Z,14.03
2022-10-31T04:39:10.915Z,14.34
2022-10-31T04:44:29.015Z,13.64
2022-10-31T04:49:36.043Z,13.22
2022-10-31T04:54:38.672Z,13.05
2022-10-31T05:00:20.920Z,12.96
2022-10-31T05:05:28.727Z,13.09
2022-10-31T05:10:31.872Z,13.42
2022-10-31T05:15:35.993Z,13.32
2022-10-31T05:20:44.127Z,13.21
2022-10-31T05:26:25.860Z,13.51
2022-10-31T05:31:30.539Z,13.53
2022-10-31T05:36:33.387Z,13.58
2022-10-31T05:41:39.357Z,13.47
2022-10-31T05:46:55.985Z,13.21
2022-10-31T05:52:24.507Z,13.70
2022-10-31T05:57:34.963Z,13.70
2022-10-31T06:02:37.736Z,13.42
2022-10-31T06:08:03.614Z,13.64
2022-10-31T06:13:07.613Z,14.35
2022-10-31T06:18:18.687Z,13.71
2022-10-31T06:23:23.888Z,13.41
2022-10-31T06:28:34.513Z,13.02
2022-10-31T06:33:48.725Z,12.90
2022-10-31T06:38:51.399Z,13.10
2022-10-31T06:43:57.763Z,13.42
2022-10-31T06:49:26.727Z,13.83
2022-10-31T06:54:30.850Z,14.29
2022-10-31T06:59:33.532Z,14.69
2022-10-31T07:04:44.763Z,14.64
2022-10-31T07:09:50.184Z,15.37
2022-10-31T07:14:57.116Z,15.05
2022-10-31T07:19:59.861Z,14.42
2022-10-31T07:25:02.591Z,15.21
2022-10-31T07:30:23.520Z,15.47
2022-10-31T07:35:30.977Z,15.42
2022-10-31T07:40:34.719Z,15.25
2022-10-31T07:45:38.817Z,15.18
2022-10-31T07:50:59.552Z,15.38
2022-10-31T07:56:28.360Z,15.74
2022-10-31T08:01:30.937Z,15.75
2022-10-31T08:07:02.179Z,16.01
2022-10-31T08:12:10.331Z,16.56
2022-10-31T08:17:13.671Z,16.86
2022-10-31T08:22:33.497Z,17.24
2022-10-31T08:27:37.491Z,16.94
2022-10-31T08:32:40.066Z,18.01
2022-10-31T08:38:01.613Z,17.34
2022-10-31T08:43:07.937Z,17.05
2022-10-31T08:48:16.243Z,16.80
2022-10-31T08:53:20.392Z,17.05
2022-10-31T08:58:32.620Z,17.42
2022-10-31T09:03:38.527Z,17.81
2022-10-31T09:08:41.629Z,16.72
2022-10-31T09:13:44.265Z,16.89
2022-10-31T09:18:52.239Z,17.30
2022-10-31T09:23:55.122Z,17.44
2022-10-31T09:28:59.565Z,17.83
2022-10-31T09:34:02.160Z,17.82
2022-10-31T09:39:13.143Z,18.16
2022-10-31T09:44:24.861Z,18.62
2022-10-31T09:50:03.543Z,18.48
2022-10-31T09:55:20.168Z,18.42
2022-10-31T10:00:23.526Z,18.24
2022-10-31T10:05:31.914Z,18.29
2022-10-31T10:10:46.098Z,17.56
2022-10-31T10:16:19.295Z,18.20
2022-10-31T10:21:38.961Z,18.34
2022-10-31T10:27:12.586Z,18.49
2022-10-31T10:32:28.622Z,18.87
2022-10-31T10:37:42.244Z,19.14
2022-10-31T10:43:27.006Z,19.39
2022-10-31T10:48:45.867Z,19.07
2022-10-31T10:54:10.439Z,18.99
2022-10-31T10:59:22.808Z,19.40
2022-10-31T11:04:34.267Z,19.41
2022-10-31T11:09:38.278Z,19.27
2022-10-31T11:14:54.470Z,19.57
2022-10-31T11:20:22.831Z,20.27
2022-10-31T11:25:26.804Z,21.59
2022-10-31T11:30:30.946Z,22.09
2022-10-31T11:35:33.451Z,22.09
2022-10-31T11:40:35.913Z,21.87
2022-10-31T11:45:38.361Z,22.06
2022-10-31T11:50:43.010Z,21.85
2022-10-31T11:55:47.027Z,21.20
2022-10-31T12:00:57.322Z,20.74
2022-10-31T12:06:22.874Z,20.31
2022-10-31T12:11:31.062Z,20.57
2022-10-31T12:16:59.151Z,20.55
2022-10-31T12:22:07.619Z,20.70
2022-10-31T12:27:22.226Z,21.09
2022-10-31T12:33:02.278Z,21.15
2022-10-31T12:38:32.165Z,20.91
2022-10-31T12:43:58.640Z,20.55
2022-10-31T12:49:33.649Z,20.57
2022-10-31T12:54:53.691Z,20.31
2022-10-31T13:00:11.611Z,20.14
2022-10-31T13:05:18.052Z,20.12
2022-10-31T13:10:44.369Z,19.70
2022-10-31T13:15:57.836Z,19.83
2022-10-31T13:21:04.882Z,19.97
2022-10-31T13:26:22.076Z,20.04
2022-10-31T13:31:24.666Z,19.90
2022-10-31T13:36:30.274Z,20.31
2022-10-31T13:41:48.289Z,20.64
2022-10-31T13:46:51.428Z,20.92
2022-10-31T13:51:54.191Z,20.76
2022-10-31T13:56:56.996Z,20.89
2022-10-31T14:02:02.356Z,20.98
2022-10-31T14:07:18.844Z,20.98
2022-10-31T14:12:42.140Z,20.54
2022-10-31T14:17:58.888Z,20.12
2022-10-31T14:23:30.850Z,19.67
2022-10-31T14:28:36.250Z,19.75
2022-10-31T14:33:43.214Z,19.44
2022-10-31T14:38:57.585Z,19.09
2022-10-31T14:44:29.298Z,18.68
2022-10-31T14:49:40.455Z,18.73
2022-10-31T14:54:53.398Z,18.57
2022-10-31T15:00:05.293Z,18.64
2022-10-31T15:05:12.382Z,18.44
2022-10-31T15:10:22.413Z,18.38
2022-10-31T15:15:27.829Z,18.40
2022-10-31T15:20:34.802Z,17.96
2022-10-31T15:25:37.246Z,17.99
2022-10-31T15:30:39.624Z,17.75
2022-10-31T15:35:42.060Z,17.38
2022-10-31T15:41:02.604Z,17.09
2022-10-31T15:46:08.872Z,16.93
2022-10-31T15:51:11.279Z,16.95
2022-10-31T15:56:24.015Z,16.74
2022-10-31T16:01:28.323Z,16.79
2022-10-31T16:06:32.410Z,16.88
2022-10-31T16:11:40.045Z,17.19
2022-10-31T16:16:50.383Z,17.28
2022-10-31T16:22:04.605Z,16.75
2022-10-31T16:27:18.362Z,16.38
2022-10-31T16:32:35.554Z,16.15
2022-10-31T16:37:41.674Z,16.05
2022-10-31T16:42:45.536Z,16.10
2022-10-31T16:47:49.344Z,16.01
2022-10-31T16:58:35.231Z,16.55
2022-10-31T17:03:37.614Z,16.32
2022-10-31T17:08:40.334Z,16.37
2022-10-31T17:13:42.739Z,16.70
2022-10-31T17:18:46.881Z,16.05
2022-10-31T17:23:50.652Z,15.72
2022-10-31T17:28:53.065Z,16.72
2022-10-31T17:34:02.265Z,16.70
2022-10-31T17:39:07.630Z,16.35
2022-10-31T17:44:11.793Z,16.25
2022-10-31T17:49:14.536Z,16.11
2022-10-31T17:54:18.859Z,16.04
2022-10-31T17:59:21.292Z,15.85
2022-10-31T18:04:23.921Z,15.68
2022-10-31T18:09:26.670Z,15.80
2022-10-31T18:14:29.683Z,15.96
2022-10-31T18:19:32.127Z,15.89
2022-10-31T18:24:34.556Z,15.70
2022-10-31T18:29:36.943Z,15.69
2022-10-31T18:34:39.337Z,15.85
2022-10-31T18:39:41.791Z,15.69
2022-10-31T18:44:44.190Z,15.56
2022-10-31T18:49:46.591Z,15.57
2022-10-31T18:54:48.970Z,15.64
2022-10-31T18:59:51.375Z,15.54
2022-10-31T19:04:53.733Z,15.68
2022-10-31T19:09:56.374Z,15.81
2022-10-31T19:14:59.225Z,15.70
2022-10-31T19:20:01.891Z,15.94
2022-10-31T19:25:07.687Z,15.90
2022-10-31T19:30:13.274Z,16.13
2022-10-31T19:35:16.107Z,15.96
2022-10-31T19:40:18.930Z,15.77
2022-10-31T19:45:21.360Z,15.77
2022-10-31T19:50:23.825Z,15.87
2022-10-31T19:55:26.479Z,15.97
2022-10-31T20:00:29.184Z,15.89
2022-10-31T20:05:32.264Z,15.82
2022-10-31T20:10:34.826Z,15.89
2022-10-31T20:15:37.420Z,15.83
2022-10-31T20:20:39.809Z,15.72
2022-10-31T20:25:49.142Z,15.62
2022-10-31T20:30:51.741Z,15.64
2022-10-31T20:35:54.145Z,16.21
2022-10-31T20:41:03.890Z,16.19
2022-10-31T20:46:07.562Z,16.25
2022-10-31T20:56:38.912Z,16.14
2022-10-31T21:01:41.396Z,16.09
2022-10-31T21:06:49.098Z,15.54
2022-10-31T21:11:52.064Z,15.45
2022-10-31T21:16:54.882Z,15.62
2022-10-31T21:21:57.889Z,16.51
2022-10-31T21:27:02.613Z,17.56
2022-10-31T21:32:05.313Z,17.48
2022-10-31T21:37:07.691Z,16.12
2022-10-31T21:42:10.094Z,15.38
2022-10-31T21:47:12.537Z,15.37
2022-10-31T21:52:14.899Z,16.15
2022-10-31T21:57:17.337Z,16.16
2022-10-31T22:02:19.834Z,15.82
2022-10-31T22:07:22.251Z,15.21
2022-10-31T22:12:24.666Z,15.07
2022-10-31T22:17:28.068Z,15.80
2022-10-31T22:22:30.612Z,15.97
2022-10-31T22:27:33.043Z,15.24
2022-10-31T22:32:35.635Z,16.29
2022-10-31T22:37:38.012Z,17.01
2022-10-31T22:42:40.403Z,16.10
2022-10-31T22:47:42.854Z,15.53
2022-10-31T22:52:45.490Z,15.04
2022-10-31T22:57:47.880Z,14.70
2022-10-31T23:02:50.271Z,14.74
2022-10-31T23:07:52.671Z,16.04
2022-10-31T23:13:13.946Z,16.69
2022-10-31T23:18:36.598Z,16.97
2022-10-31T23:23:38.746Z,16.64
2022-10-31T23:28:41.109Z,15.66
2022-10-31T23:33:43.481Z,15.02
2022-10-31T23:38:45.838Z,15.38
2022-10-31T23:43:48.867Z,16.22
2022-10-31T23:48:53.553Z,16.09
2022-10-31T23:53:57.689Z,16.35
2022-10-31T23:59:00.255Z,15.76
